sensor_id;sensor_type;location;lat;lon;timestamp;pressure;altitude;pressure_sealevel;temperature;humidity
54666;BME280;40566;50.006;36.180;2023-04-06T00:02:59;99264.59;;;12.62;60.47
54666;BME280;40566;50.006;36.180;2023-04-06T00:08:00;99268.13;;;12.60;60.37
54666;BME280;40566;50.006;36.180;2023-04-06T00:13:01;99266.69;;;12.54;60.55
54666;BME280;40566;50.006;36.180;2023-04-06T00:18:02;99260.91;;;12.47;60.84
54666;BME280;40566;50.006;36.180;2023-04-06T00:23:03;99263.53;;;12.46;60.83
54666;BME280;40566;50.006;36.180;2023-04-06T00:28:03;99258.34;;;12.46;60.63
54666;BME280;40566;50.006;36.180;2023-04-06T00:33:04;99256.03;;;12.40;60.74
54666;BME280;40566;50.006;36.180;2023-04-06T00:38:04;99251.13;;;12.34;60.90
54666;BME280;40566;50.006;36.180;2023-04-06T00:43:05;99245.94;;;12.34;60.98
54666;BME280;40566;50.006;36.180;2023-04-06T00:48:07;99249.19;;;12.39;60.78
54666;BME280;40566;50.006;36.180;2023-04-06T00:53:08;99253.38;;;12.41;60.96
54666;BME280;40566;50.006;36.180;2023-04-06T00:58:08;99254.31;;;12.40;60.60
54666;BME280;40566;50.006;36.180;2023-04-06T01:03:09;99255.13;;;12.41;60.70
54666;BME280;40566;50.006;36.180;2023-04-06T01:08:10;99247.28;;;12.42;60.74
54666;BME280;40566;50.006;36.180;2023-04-06T01:13:10;99244.63;;;12.44;60.77
54666;BME280;40566;50.006;36.180;2023-04-06T01:18:11;99245.38;;;12.46;60.56
54666;BME280;40566;50.006;36.180;2023-04-06T01:23:11;99253.88;;;12.49;60.57
54666;BME280;40566;50.006;36.180;2023-04-06T01:28:12;99246.97;;;12.50;60.55
54666;BME280;40566;50.006;36.180;2023-04-06T01:33:13;99245.16;;;12.52;60.67
54666;BME280;40566;50.006;36.180;2023-04-06T01:38:14;99248.50;;;12.54;60.65
54666;BME280;40566;50.006;36.180;2023-04-06T01:43:14;99252.78;;;12.55;60.75
54666;BME280;40566;50.006;36.180;2023-04-06T01:48:16;99244.38;;;12.50;60.76
54666;BME280;40566;50.006;36.180;2023-04-06T01:53:17;99248.69;;;12.49;60.93
54666;BME280;40566;50.006;36.180;2023-04-06T01:58:17;99256.47;;;12.49;60.94
54666;BME280;40566;50.006;36.180;2023-04-06T02:03:18;99257.34;;;12.50;60.95
54666;BME280;40566;50.006;36.180;2023-04-06T02:08:18;99253.97;;;12.48;60.90
54666;BME280;40566;50.006;36.180;2023-04-06T02:13:19;99264.41;;;12.46;61.01
54666;BME280;40566;50.006;36.180;2023-04-06T02:18:20;99249.94;;;12.41;61.08
54666;BME280;40566;50.006;36.180;2023-04-06T02:23:21;99260.66;;;12.33;61.43
54666;BME280;40566;50.006;36.180;2023-04-06T02:28:21;99273.75;;;12.30;61.46
54666;BME280;40566;50.006;36.180;2023-04-06T02:33:22;99278.41;;;12.22;61.76
54666;BME280;40566;50.006;36.180;2023-04-06T02:38:22;99277.69;;;12.18;61.75
54666;BME280;40566;50.006;36.180;2023-04-06T02:43:23;99286.66;;;12.11;62.01
54666;BME280;40566;50.006;36.180;2023-04-06T02:48:24;99281.06;;;12.00;62.43
54666;BME280;40566;50.006;36.180;2023-04-06T02:53:26;99280.34;;;11.96;62.22
54666;BME280;40566;50.006;36.180;2023-04-06T02:58:27;99276.97;;;11.94;62.49
54666;BME280;40566;50.006;36.180;2023-04-06T03:03:28;99280.47;;;11.93;62.61
54666;BME280;40566;50.006;36.180;2023-04-06T03:08:29;99268.41;;;11.92;62.69
54666;BME280;40566;50.006;36.180;2023-04-06T03:13:29;99280.47;;;11.93;62.61
54666;BME280;40566;50.006;36.180;2023-04-06T03:18:30;99274.31;;;11.96;62.71
54666;BME280;40566;50.006;36.180;2023-04-06T03:23:31;99278.66;;;11.95;62.63
54666;BME280;40566;50.006;36.180;2023-04-06T03:28:31;99277.09;;;11.91;62.73
54666;BME280;40566;50.006;36.180;2023-04-06T03:33:32;99278.84;;;11.90;62.78
54666;BME280;40566;50.006;36.180;2023-04-06T03:38:32;99290.69;;;11.96;62.77
54666;BME280;40566;50.006;36.180;2023-04-06T03:43:33;99290.75;;;11.95;62.79
54666;BME280;40566;50.006;36.180;2023-04-06T03:48:33;99300.50;;;11.89;62.93
54666;BME280;40566;50.006;36.180;2023-04-06T03:53:34;99311.63;;;11.92;63.02
54666;BME280;40566;50.006;36.180;2023-04-06T03:58:37;99319.28;;;11.95;62.86
54666;BME280;40566;50.006;36.180;2023-04-06T04:03:37;99316.75;;;11.93;62.79
54666;BME280;40566;50.006;36.180;2023-04-06T04:08:38;99321.81;;;11.96;62.73
54666;BME280;40566;50.006;36.180;2023-04-06T04:13:38;99321.63;;;12.01;62.77
54666;BME280;40566;50.006;36.180;2023-04-06T04:18:39;99317.28;;;12.01;62.72
54666;BME280;40566;50.006;36.180;2023-04-06T04:23:40;99320.72;;;12.02;62.76
54666;BME280;40566;50.006;36.180;2023-04-06T04:28:41;99324.88;;;12.06;62.71
54666;BME280;40566;50.006;36.180;2023-04-06T04:33:41;99319.53;;;12.10;62.63
54666;BME280;40566;50.006;36.180;2023-04-06T04:38:42;99329.63;;;12.17;62.48
54666;BME280;40566;50.006;36.180;2023-04-06T04:43:43;99348.16;;;12.28;62.27
54666;BME280;40566;50.006;36.180;2023-04-06T04:48:43;99343.34;;;12.41;62.03
54666;BME280;40566;50.006;36.180;2023-04-06T04:53:44;99337.34;;;12.59;61.74
54666;BME280;40566;50.006;36.180;2023-04-06T04:58:45;99345.53;;;12.70;61.42
54666;BME280;40566;50.006;36.180;2023-04-06T05:03:45;99346.53;;;12.87;61.06
54666;BME280;40566;50.006;36.180;2023-04-06T05:08:46;99351.28;;;12.98;60.73
54666;BME280;40566;50.006;36.180;2023-04-06T05:13:46;99347.16;;;13.13;60.50
54666;BME280;40566;50.006;36.180;2023-04-06T05:18:48;99350.25;;;13.21;60.41
54666;BME280;40566;50.006;36.180;2023-04-06T05:23:49;99355.19;;;13.27;60.16
54666;BME280;40566;50.006;36.180;2023-04-06T05:28:50;99338.47;;;13.33;60.11
54666;BME280;40566;50.006;36.180;2023-04-06T05:33:51;99348.19;;;13.48;59.72
54666;BME280;40566;50.006;36.180;2023-04-06T05:38:52;99341.72;;;13.57;59.70
54666;BME280;40566;50.006;36.180;2023-04-06T05:43:53;99340.50;;;13.83;58.95
54666;BME280;40566;50.006;36.180;2023-04-06T05:48:53;99333.72;;;14.15;58.52
54666;BME280;40566;50.006;36.180;2023-04-06T05:53:54;99339.06;;;14.29;57.79
54666;BME280;40566;50.006;36.180;2023-04-06T05:58:55;99344.59;;;14.41;57.86
54666;BME280;40566;50.006;36.180;2023-04-06T06:03:56;99348.06;;;14.59;57.43
54666;BME280;40566;50.006;36.180;2023-04-06T06:08:57;99349.19;;;14.71;57.07
54666;BME280;40566;50.006;36.180;2023-04-06T06:14:00;99354.69;;;14.82;56.93
54666;BME280;40566;50.006;36.180;2023-04-06T06:19:01;99356.22;;;14.86;56.63
54666;BME280;40566;50.006;36.180;2023-04-06T06:24:02;99355.34;;;15.03;56.30
54666;BME280;40566;50.006;36.180;2023-04-06T06:29:03;99356.72;;;15.26;55.41
54666;BME280;40566;50.006;36.180;2023-04-06T06:34:05;99356.84;;;15.40;55.02
54666;BME280;40566;50.006;36.180;2023-04-06T06:39:06;99367.28;;;15.40;54.73
54666;BME280;40566;50.006;36.180;2023-04-06T06:44:06;99369.03;;;15.56;54.39
54666;BME280;40566;50.006;36.180;2023-04-06T06:49:09;99366.00;;;15.63;53.80
54666;BME280;40566;50.006;36.180;2023-04-06T06:54:11;99372.41;;;15.74;53.46
54666;BME280;40566;50.006;36.180;2023-04-06T06:59:12;99370.34;;;15.80;52.79
54666;BME280;40566;50.006;36.180;2023-04-06T07:04:13;99374.16;;;16.05;52.57
54666;BME280;40566;50.006;36.180;2023-04-06T07:09:14;99374.66;;;16.28;51.90
54666;BME280;40566;50.006;36.180;2023-04-06T07:14:16;99365.81;;;16.44;51.12
54666;BME280;40566;50.006;36.180;2023-04-06T07:19:16;99367.47;;;16.61;50.67
54666;BME280;40566;50.006;36.180;2023-04-06T07:24:17;99379.03;;;16.72;50.11
54666;BME280;40566;50.006;36.180;2023-04-06T07:29:18;99368.84;;;16.83;49.96
54666;BME280;40566;50.006;36.180;2023-04-06T07:34:19;99374.34;;;16.93;49.39
54666;BME280;40566;50.006;36.180;2023-04-06T07:39:20;99370.06;;;17.20;48.47
54666;BME280;40566;50.006;36.180;2023-04-06T07:44:24;99363.91;;;17.36;48.26
54666;BME280;40566;50.006;36.180;2023-04-06T07:49:25;99364.34;;;17.42;47.95
54666;BME280;40566;50.006;36.180;2023-04-06T07:54:27;99363.56;;;17.55;47.84
54666;BME280;40566;50.006;36.180;2023-04-06T07:59:28;99360.91;;;17.69;47.28
54666;BME280;40566;50.006;36.180;2023-04-06T08:04:28;99357.66;;;18.07;46.16
54666;BME280;40566;50.006;36.180;2023-04-06T08:09:29;99358.19;;;18.52;45.23
54666;BME280;40566;50.006;36.180;2023-04-06T08:14:30;99346.56;;;18.69;45.36
54666;BME280;40566;50.006;36.180;2023-04-06T08:19:30;99353.72;;;18.80;44.79
54666;BME280;40566;50.006;36.180;2023-04-06T08:24:31;99347.72;;;18.78;44.85
54666;BME280;40566;50.006;36.180;2023-04-06T08:29:32;99347.31;;;18.97;43.99
54666;BME280;40566;50.006;36.180;2023-04-06T08:34:33;99346.78;;;19.05;43.75
54666;BME280;40566;50.006;36.180;2023-04-06T08:39:34;99343.09;;;19.20;43.23
54666;BME280;40566;50.006;36.180;2023-04-06T08:44:34;99344.13;;;19.30;43.31
54666;BME280;40566;50.006;36.180;2023-04-06T08:49:37;99328.78;;;19.50;42.57
54666;BME280;40566;50.006;36.180;2023-04-06T08:54:38;99328.78;;;19.50;42.37
54666;BME280;40566;50.006;36.180;2023-04-06T08:59:39;99342.13;;;19.71;41.61
54666;BME280;40566;50.006;36.180;2023-04-06T09:04:40;99325.19;;;19.88;41.56
54666;BME280;40566;50.006;36.180;2023-04-06T09:09:41;99340.53;;;20.05;40.76
54666;BME280;40566;50.006;36.180;2023-04-06T09:14:48;99339.84;;;19.90;40.33
54666;BME280;40566;50.006;36.180;2023-04-06T09:19:48;99336.78;;;20.20;39.18
54666;BME280;40566;50.006;36.180;2023-04-06T09:24:53;99326.63;;;20.63;38.40
54666;BME280;40566;50.006;36.180;2023-04-06T09:30:09;99337.91;;;21.44;36.93
54666;BME280;40566;50.006;36.180;2023-04-06T09:35:14;99346.31;;;22.13;35.47
54666;BME280;40566;50.006;36.180;2023-04-06T09:40:15;99343.88;;;21.46;36.16
54666;BME280;40566;50.006;36.180;2023-04-06T09:45:18;99358.97;;;22.31;34.95
54666;BME280;40566;50.006;36.180;2023-04-06T09:50:19;99352.84;;;21.98;35.28
54666;BME280;40566;50.006;36.180;2023-04-06T09:55:28;99341.91;;;23.29;33.18
54666;BME280;40566;50.006;36.180;2023-04-06T10:00:33;99351.19;;;27.83;27.05
54666;BME280;40566;50.006;36.180;2023-04-06T10:05:50;99360.44;;;27.20;27.75
54666;BME280;40566;50.006;36.180;2023-04-06T10:10:54;99353.56;;;25.95;29.52
54666;BME280;40566;50.006;36.180;2023-04-06T10:15:56;99361.91;;;26.62;28.65
54666;BME280;40566;50.006;36.180;2023-04-06T10:21:11;99359.75;;;25.40;30.05
54666;BME280;40566;50.006;36.180;2023-04-06T10:26:14;99366.94;;;24.04;31.73
54666;BME280;40566;50.006;36.180;2023-04-06T10:31:26;99370.44;;;25.10;30.50
54666;BME280;40566;50.006;36.180;2023-04-06T10:36:32;99381.34;;;26.88;27.96
54666;BME280;40566;50.006;36.180;2023-04-06T10:41:44;99363.47;;;27.84;27.04
54666;BME280;40566;50.006;36.180;2023-04-06T10:46:56;99367.34;;;26.78;28.17
54666;BME280;40566;50.006;36.180;2023-04-06T10:51:57;99373.84;;;25.58;29.74
54666;BME280;40566;50.006;36.180;2023-04-06T10:56:58;99383.06;;;23.82;31.80
54666;BME280;40566;50.006;36.180;2023-04-06T11:02:00;99378.44;;;25.38;29.63
54666;BME280;40566;50.006;36.180;2023-04-06T11:07:00;99393.59;;;26.45;28.28
54666;BME280;40566;50.006;36.180;2023-04-06T11:12:04;99385.03;;;25.24;30.17
54666;BME280;40566;50.006;36.180;2023-04-06T11:17:05;99390.25;;;24.97;30.68
54666;BME280;40566;50.006;36.180;2023-04-06T11:22:07;99387.03;;;25.03;30.28
54666;BME280;40566;50.006;36.180;2023-04-06T11:27:08;99386.41;;;23.84;32.16
54666;BME280;40566;50.006;36.180;2023-04-06T11:32:09;99395.59;;;23.18;32.95
54666;BME280;40566;50.006;36.180;2023-04-06T11:37:11;99394.41;;;22.80;33.29
54666;BME280;40566;50.006;36.180;2023-04-06T11:42:12;99409.31;;;23.12;32.74
54666;BME280;40566;50.006;36.180;2023-04-06T11:47:13;99414.28;;;22.84;33.25
54666;BME280;40566;50.006;36.180;2023-04-06T11:52:22;99410.41;;;22.46;33.82
54666;BME280;40566;50.006;36.180;2023-04-06T11:57:23;99416.94;;;22.31;34.05
54666;BME280;40566;50.006;36.180;2023-04-06T12:02:28;99424.22;;;21.84;34.63
54666;BME280;40566;50.006;36.180;2023-04-06T12:07:29;99426.97;;;21.03;35.67
54666;BME280;40566;50.006;36.180;2023-04-06T12:12:30;99434.22;;;20.29;37.23
54666;BME280;40566;50.006;36.180;2023-04-06T12:17:31;99444.66;;;20.17;37.22
54666;BME280;40566;50.006;36.180;2023-04-06T12:22:32;99456.00;;;19.94;38.04
54666;BME280;40566;50.006;36.180;2023-04-06T12:27:32;99459.50;;;19.56;38.80
54666;BME280;40566;50.006;36.180;2023-04-06T12:32:33;99471.06;;;19.28;39.90
54666;BME280;40566;50.006;36.180;2023-04-06T12:37:34;99482.66;;;18.85;40.89
54666;BME280;40566;50.006;36.180;2023-04-06T12:42:35;99478.38;;;18.70;41.39
54666;BME280;40566;50.006;36.180;2023-04-06T12:47:35;99483.94;;;18.38;42.07
54666;BME280;40566;50.006;36.180;2023-04-06T12:52:36;99492.81;;;18.08;42.98
54666;BME280;40566;50.006;36.180;2023-04-06T12:57:37;99488.53;;;17.93;43.19
54666;BME280;40566;50.006;36.180;2023-04-06T13:02:37;99495.63;;;17.76;43.87
54666;BME280;40566;50.006;36.180;2023-04-06T13:07:39;99486.13;;;17.47;44.96
54666;BME280;40566;50.006;36.180;2023-04-06T13:12:39;99497.88;;;17.39;45.59
54666;BME280;40566;50.006;36.180;2023-04-06T13:17:40;99502.47;;;17.36;45.36
54666;BME280;40566;50.006;36.180;2023-04-06T13:22:41;99495.59;;;17.19;45.77
54666;BME280;40566;50.006;36.180;2023-04-06T13:27:42;99494.97;;;16.85;46.93
54666;BME280;40566;50.006;36.180;2023-04-06T13:32:46;99497.75;;;16.82;46.70
54666;BME280;40566;50.006;36.180;2023-04-06T13:37:47;99504.09;;;16.62;47.55
54666;BME280;40566;50.006;36.180;2023-04-06T13:42:48;99512.19;;;16.57;47.36
54666;BME280;40566;50.006;36.180;2023-04-06T13:47:49;99506.13;;;16.57;47.76
54666;BME280;40566;50.006;36.180;2023-04-06T13:52:49;99504.59;;;16.53;47.76
54666;BME280;40566;50.006;36.180;2023-04-06T13:57:50;99506.47;;;16.35;48.15
54666;BME280;40566;50.006;36.180;2023-04-06T14:02:53;99495.19;;;16.02;49.71
54666;BME280;40566;50.006;36.180;2023-04-06T14:07:54;99501.50;;;16.14;49.63
54666;BME280;40566;50.006;36.180;2023-04-06T14:12:55;99501.00;;;15.92;50.57
54666;BME280;40566;50.006;36.180;2023-04-06T14:17:56;99509.47;;;15.79;50.90
54666;BME280;40566;50.006;36.180;2023-04-06T14:23:02;99504.78;;;15.53;52.22
54666;BME280;40566;50.006;36.180;2023-04-06T14:28:03;99514.13;;;15.57;52.40
54666;BME280;40566;50.006;36.180;2023-04-06T14:33:03;99523.94;;;15.52;52.67
54666;BME280;40566;50.006;36.180;2023-04-06T14:38:04;99529.50;;;15.61;52.71
54666;BME280;40566;50.006;36.180;2023-04-06T14:43:05;99537.88;;;15.68;52.59
54666;BME280;40566;50.006;36.180;2023-04-06T14:48:06;99536.78;;;15.72;52.99
54666;BME280;40566;50.006;36.180;2023-04-06T14:53:06;99547.53;;;15.66;52.89
54666;BME280;40566;50.006;36.180;2023-04-06T14:58:07;99551.50;;;15.56;53.34
54666;BME280;40566;50.006;36.180;2023-04-06T15:03:08;99549.09;;;15.53;53.65
54666;BME280;40566;50.006;36.180;2023-04-06T15:08:08;99554.00;;;15.41;54.29
54666;BME280;40566;50.006;36.180;2023-04-06T15:13:14;99560.44;;;15.34;54.19
54666;BME280;40566;50.006;36.180;2023-04-06T15:18:14;99565.88;;;15.30;54.81
54666;BME280;40566;50.006;36.180;2023-04-06T15:23:15;99576.09;;;15.17;55.17
54666;BME280;40566;50.006;36.180;2023-04-06T15:28:16;99579.00;;;15.11;55.32
54666;BME280;40566;50.006;36.180;2023-04-06T15:33:17;99570.38;;;15.08;55.51
54666;BME280;40566;50.006;36.180;2023-04-06T15:38:17;99581.59;;;15.11;55.68
54666;BME280;40566;50.006;36.180;2023-04-06T15:43:18;99582.88;;;15.02;56.30
54666;BME280;40566;50.006;36.180;2023-04-06T15:48:19;99591.13;;;14.93;56.47
54666;BME280;40566;50.006;36.180;2023-04-06T15:53:19;99595.94;;;14.83;56.61
54666;BME280;40566;50.006;36.180;2023-04-06T15:58:20;99596.53;;;14.71;57.23
54666;BME280;40566;50.006;36.180;2023-04-06T16:03:22;99602.31;;;14.58;57.35
54666;BME280;40566;50.006;36.180;2023-04-06T16:08:23;99603.91;;;14.42;58.00
54666;BME280;40566;50.006;36.180;2023-04-06T16:13:23;99613.06;;;14.32;58.53
54666;BME280;40566;50.006;36.180;2023-04-06T16:18:24;99621.00;;;14.28;58.64
54666;BME280;40566;50.006;36.180;2023-04-06T16:23:25;99623.22;;;14.17;58.83
54666;BME280;40566;50.006;36.180;2023-04-06T16:28:26;99633.19;;;14.07;58.96
54666;BME280;40566;50.006;36.180;2023-04-06T16:33:27;99635.50;;;13.95;59.28
54666;BME280;40566;50.006;36.180;2023-04-06T16:38:28;99628.88;;;13.87;59.67
54666;BME280;40566;50.006;36.180;2023-04-06T16:43:34;99639.03;;;13.73;59.58
54666;BME280;40566;50.006;36.180;2023-04-06T16:48:35;99649.28;;;13.76;59.48
54666;BME280;40566;50.006;36.180;2023-04-06T16:53:36;99649.22;;;13.78;59.50
54666;BME280;40566;50.006;36.180;2023-04-06T16:58:37;99658.09;;;13.72;59.51
54666;BME280;40566;50.006;36.180;2023-04-06T17:03:38;99659.28;;;13.65;59.76
54666;BME280;40566;50.006;36.180;2023-04-06T17:08:43;99663.09;;;13.56;60.45
54666;BME280;40566;50.006;36.180;2023-04-06T17:13:44;99683.31;;;13.49;60.20
54666;BME280;40566;50.006;36.180;2023-04-06T17:18:46;99692.19;;;13.44;60.54
54666;BME280;40566;50.006;36.180;2023-04-06T17:23:47;99697.84;;;13.33;60.74
54666;BME280;40566;50.006;36.180;2023-04-06T17:28:47;99711.94;;;13.26;60.87
54666;BME280;40566;50.006;36.180;2023-04-06T17:33:48;99708.16;;;13.11;61.41
54666;BME280;40566;50.006;36.180;2023-04-06T17:38:49;99704.00;;;13.07;61.23
54666;BME280;40566;50.006;36.180;2023-04-06T17:43:50;99699.91;;;13.01;61.30
54666;BME280;40566;50.006;36.180;2023-04-06T17:48:50;99707.91;;;12.95;61.53
54666;BME280;40566;50.006;36.180;2023-04-06T17:53:52;99712.47;;;12.90;61.82
54666;BME280;40566;50.006;36.180;2023-04-06T17:58:56;99709.13;;;12.86;61.95
54666;BME280;40566;50.006;36.180;2023-04-06T18:03:57;99712.84;;;12.79;62.06
54666;BME280;40566;50.006;36.180;2023-04-06T18:08:58;99712.69;;;12.84;61.97
54666;BME280;40566;50.006;36.180;2023-04-06T18:13:58;99715.94;;;12.89;62.02
54666;BME280;40566;50.006;36.180;2023-04-06T18:19:00;99707.13;;;12.93;61.99
54666;BME280;40566;50.006;36.180;2023-04-06T18:24:01;99713.91;;;12.97;61.98
54666;BME280;40566;50.006;36.180;2023-04-06T18:29:01;99728.47;;;13.01;62.24
54666;BME280;40566;50.006;36.180;2023-04-06T18:34:02;99727.63;;;13.01;62.25
54666;BME280;40566;50.006;36.180;2023-04-06T18:39:04;99733.53;;;13.04;62.29
54666;BME280;40566;50.006;36.180;2023-04-06T18:44:04;99745.63;;;13.05;62.32
54666;BME280;40566;50.006;36.180;2023-04-06T18:49:06;99729.03;;;13.09;62.48
54666;BME280;40566;50.006;36.180;2023-04-06T18:54:07;99740.22;;;13.12;62.67
54666;BME280;40566;50.006;36.180;2023-04-06T18:59:08;99751.25;;;13.17;62.55
54666;BME280;40566;50.006;36.180;2023-04-06T19:04:10;99743.69;;;13.10;62.98
54666;BME280;40566;50.006;36.180;2023-04-06T19:09:10;99752.28;;;13.13;62.52
54666;BME280;40566;50.006;36.180;2023-04-06T19:14:11;99747.06;;;13.13;62.88
54666;BME280;40566;50.006;36.180;2023-04-06T19:19:12;99754.13;;;13.09;62.80
54666;BME280;40566;50.006;36.180;2023-04-06T19:24:12;99765.63;;;13.03;62.91
54666;BME280;40566;50.006;36.180;2023-04-06T19:29:13;99757.84;;;13.03;63.21
54666;BME280;40566;50.006;36.180;2023-04-06T19:34:13;99749.91;;;13.06;63.03
54666;BME280;40566;50.006;36.180;2023-04-06T19:39:16;99747.31;;;13.06;63.04
54666;BME280;40566;50.006;36.180;2023-04-06T19:44:17;99752.66;;;13.03;63.04
54666;BME280;40566;50.006;36.180;2023-04-06T19:49:18;99740.50;;;13.04;63.09
54666;BME280;40566;50.006;36.180;2023-04-06T19:54:22;99750.94;;;13.02;63.27
54666;BME280;40566;50.006;36.180;2023-04-06T19:59:22;99748.34;;;13.02;63.26
54666;BME280;40566;50.006;36.180;2023-04-06T20:04:23;99754.50;;;13.00;63.30
54666;BME280;40566;50.006;36.180;2023-04-06T20:09:24;99750.19;;;12.99;63.37
54666;BME280;40566;50.006;36.180;2023-04-06T20:14:25;99753.75;;;12.96;63.53
54666;BME280;40566;50.006;36.180;2023-04-06T20:19:26;99764.19;;;12.95;63.49
54666;BME280;40566;50.006;36.180;2023-04-06T20:24:26;99765.28;;;12.89;63.42
54666;BME280;40566;50.006;36.180;2023-04-06T20:29:27;99767.22;;;12.84;63.73
54666;BME280;40566;50.006;36.180;2023-04-06T20:34:28;99760.22;;;12.86;63.54
54666;BME280;40566;50.006;36.180;2023-04-06T20:39:29;99766.28;;;12.85;63.65
54666;BME280;40566;50.006;36.180;2023-04-06T20:44:30;99757.16;;;12.75;64.01
54666;BME280;40566;50.006;36.180;2023-04-06T20:49:31;99773.75;;;12.70;64.31
54666;BME280;40566;50.006;36.180;2023-04-06T20:54:32;99782.31;;;12.73;64.12
54666;BME280;40566;50.006;36.180;2023-04-06T20:59:32;99791.72;;;12.75;64.10
54666;BME280;40566;50.006;36.180;2023-04-06T21:04:34;99781.25;;;12.78;64.25
54666;BME280;40566;50.006;36.180;2023-04-06T21:09:36;99774.31;;;12.79;64.21
54666;BME280;40566;50.006;36.180;2023-04-06T21:14:36;99777.81;;;12.78;64.66
54666;BME280;40566;50.006;36.180;2023-04-06T21:19:37;99773.63;;;12.74;64.65
54666;BME280;40566;50.006;36.180;2023-04-06T21:24:37;99783.22;;;12.72;64.89
54666;BME280;40566;50.006;36.180;2023-04-06T21:29:38;99783.09;;;12.75;64.87
54666;BME280;40566;50.006;36.180;2023-04-06T21:34:42;99767.53;;;12.75;64.76
54666;BME280;40566;50.006;36.180;2023-04-06T21:39:45;99777.13;;;12.73;64.81
54666;BME280;40566;50.006;36.180;2023-04-06T21:44:45;99780.56;;;12.73;65.08
54666;BME280;40566;50.006;36.180;2023-04-06T21:49:46;99776.34;;;12.70;65.20
54666;BME280;40566;50.006;36.180;2023-04-06T21:54:46;99772.81;;;12.72;65.06
54666;BME280;40566;50.006;36.180;2023-04-06T21:59:47;99770.44;;;12.65;65.38
54666;BME280;40566;50.006;36.180;2023-04-06T22:04:47;99776.66;;;12.61;65.51
54666;BME280;40566;50.006;36.180;2023-04-06T22:09:48;99772.53;;;12.56;65.93
54666;BME280;40566;50.006;36.180;2023-04-06T22:14:50;99780.47;;;12.51;66.11
54666;BME280;40566;50.006;36.180;2023-04-06T22:19:51;99772.97;;;12.43;66.18
54666;BME280;40566;50.006;36.180;2023-04-06T22:24:52;99775.72;;;12.39;66.39
54666;BME280;40566;50.006;36.180;2023-04-06T22:29:52;99776.75;;;12.35;66.62
54666;BME280;40566;50.006;36.180;2023-04-06T22:34:53;99786.31;;;12.33;66.82
54666;BME280;40566;50.006;36.180;2023-04-06T22:39:54;99787.38;;;12.27;67.07
54666;BME280;40566;50.006;36.180;2023-04-06T22:44:57;99777.31;;;12.18;67.54
54666;BME280;40566;50.006;36.180;2023-04-06T22:49:58;99775.09;;;12.07;67.77
54666;BME280;40566;50.006;36.180;2023-04-06T22:54:58;99778.72;;;12.01;68.10
54666;BME280;40566;50.006;36.180;2023-04-06T22:59:59;99778.06;;;11.95;68.30
54666;BME280;40566;50.006;36.180;2023-04-06T23:05:00;99779.06;;;11.90;68.36
54666;BME280;40566;50.006;36.180;2023-04-06T23:10:00;99779.34;;;11.81;68.63
54666;BME280;40566;50.006;36.180;2023-04-06T23:15:02;99782.94;;;11.77;68.68
54666;BME280;40566;50.006;36.180;2023-04-06T23:20:03;99786.16;;;11.84;68.55
54666;BME280;40566;50.006;36.180;2023-04-06T23:25:04;99790.31;;;11.91;68.54
54666;BME280;40566;50.006;36.180;2023-04-06T23:30:07;99788.34;;;11.98;68.17
54666;BME280;40566;50.006;36.180;2023-04-06T23:35:08;99785.53;;;12.04;68.01
54666;BME280;40566;50.006;36.180;2023-04-06T23:40:08;99794.50;;;11.95;68.31
54666;BME280;40566;50.006;36.180;2023-04-06T23:45:09;99790.94;;;11.98;68.49
54666;BME280;40566;50.006;36.180;2023-04-06T23:50:10;99789.91;;;12.03;68.36
54666;BME280;40566;50.006;36.180;2023-04-06T23:55:11;99793.31;;;12.04;68.51
